NCAR-RAP Real-Time Weather Data

Output produced by METARs form (10 April 2020  07:22 UTC)
found at http://weather.rap.ucar.edu/surface/
 
KSEA 100653Z 06007KT 10SM CLR 12/02 A3007 RMK AO2 SLP187 T01220017
KSEA 100553Z 04008KT 10SM CLR 13/02 A3008 RMK AO2 SLP192 T01280017 10206 20128 51008
KSEA 100453Z 02013KT 10SM CLR 14/01 A3008 RMK AO2 SLP192 T01390006
KSEA 100353Z 35008KT 10SM FEW250 14/02 A3007 RMK AO2 SLP190 T01390022
KSEA 100253Z 35009KT 10SM FEW250 15/02 A3005 RMK AO2 SLP183 T01500022 55005
KSEA 100153Z 35009KT 10SM SCT250 18/02 A3005 RMK AO2 SLP182 T01830017
KSEA 100053Z 36011KT 10SM SCT250 19/02 A3006 RMK AO2 SLP184 T01940017
KSEA 092353Z 35010KT 10SM CLR 20/02 A3007 RMK AO2 SLP188 T02000022 10200 20144 56021
KSEA 092253Z 29008KT 10SM SCT250 19/04 A3008 RMK AO2 SLP192 T01940044
KSEA 092153Z VRB04KT 10SM FEW250 19/04 A3010 RMK AO2 SLP200 T01940039
KSEA 092053Z 02007KT 10SM FEW250 18/04 A3013 RMK AO2 SLP209 T01830039 58013
KSEA 091953Z 35009KT 10SM FEW250 17/04 A3014 RMK AO2 SLP214 T01720039
KSEA 091853Z 36012KT 10SM FEW250 16/03 A3016 RMK AO2 SLP220 T01610028
KSEA 091753Z 01007KT 10SM FEW250 14/03 A3017 RMK AO2 SLP222 T01390028 10144 20056 56005
KSEA 091653Z 01005KT 10SM FEW250 13/04 A3017 RMK AO2 SLP223 T01280039
KSEA 091553Z 05003KT 10SM FEW250 10/04 A3018 RMK AO2 SLP225 T01000039
KSEA 091453Z 06004KT 10SM SCT250 08/04 A3018 RMK AO2 SLP228 T00830039 53003
KSEA 091353Z 03004KT 10SM SCT250 07/03 A3018 RMK AO2 SLP226 T00720033
KSEA 091253Z 00000KT 10SM FEW250 06/02 A3017 RMK AO2 SLP224 T00610022
KSEA 091153Z 08004KT 10SM FEW250 07/02 A3017 RMK AO2 SLP224 T00720022 10111 20067 56010
KSEA 091053Z 02005KT 10SM SCT250 08/02 A3019 RMK AO2 SLP228 T00830022